createdAt,value
2022-11-07T00:00:28.403Z,79.30
2022-11-07T00:03:01.017Z,79.30
2022-11-07T00:05:29.695Z,79.24
2022-11-07T00:07:58.344Z,79.58
2022-11-07T00:10:26.950Z,79.46
2022-11-07T00:12:55.547Z,79.35
2022-11-07T00:15:24.180Z,79.42
2022-11-07T00:17:52.825Z,79.51
2022-11-07T00:20:21.408Z,79.69
2022-11-07T00:22:50.195Z,79.86
2022-11-07T00:25:18.810Z,80.01
2022-11-07T00:27:47.418Z,79.89
2022-11-07T00:30:16.054Z,79.91
2022-11-07T00:32:44.701Z,79.73
2022-11-07T00:35:13.615Z,79.89
2022-11-07T00:37:42.166Z,80.16
2022-11-07T00:40:11.323Z,79.91
2022-11-07T00:42:39.959Z,79.64
2022-11-07T00:45:09.361Z,79.82
2022-11-07T00:47:37.936Z,79.72
2022-11-07T00:50:08.152Z,79.82
2022-11-07T00:52:36.813Z,79.91
2022-11-07T00:55:05.975Z,79.93
2022-11-07T00:57:34.543Z,80.00
2022-11-07T01:00:04.666Z,80.18
2022-11-07T01:02:33.390Z,80.18
2022-11-07T01:05:10.910Z,80.06
2022-11-07T01:07:41.081Z,79.92
2022-11-07T01:10:09.756Z,79.97
2022-11-07T01:12:38.360Z,79.96
2022-11-07T01:15:07.615Z,79.82
2022-11-07T01:17:36.247Z,80.08
2022-11-07T01:20:05.883Z,80.03
2022-11-07T01:22:34.536Z,80.05
2022-11-07T01:25:03.204Z,79.92
2022-11-07T01:27:31.890Z,79.98
2022-11-07T01:30:00.422Z,79.90
2022-11-07T01:32:29.059Z,80.10
2022-11-07T01:34:57.649Z,80.32
2022-11-07T01:37:26.356Z,80.12
2022-11-07T01:39:54.994Z,80.18
2022-11-07T01:42:23.967Z,80.10
2022-11-07T01:44:58.922Z,79.69
2022-11-07T01:47:33.432Z,80.27
2022-11-07T01:50:03.447Z,80.36
2022-11-07T01:52:38.064Z,80.20
2022-11-07T01:55:26.347Z,80.09
2022-11-07T01:58:03.402Z,80.04
2022-11-07T02:00:33.947Z,80.11
2022-11-07T02:03:17.688Z,80.11
2022-11-07T02:06:01.160Z,79.95
2022-11-07T02:08:34.330Z,79.60
2022-11-07T02:11:04.827Z,79.66
2022-11-07T02:13:33.503Z,79.57
2022-11-07T02:16:04.503Z,79.56
2022-11-07T02:18:36.493Z,79.40
2022-11-07T02:21:36.589Z,79.57
2022-11-07T02:24:08.117Z,79.53
2022-11-07T02:26:38.510Z,79.85
2022-11-07T02:29:10.488Z,79.70
2022-11-07T02:31:39.181Z,79.64
2022-11-07T02:34:07.795Z,79.71
2022-11-07T02:36:36.454Z,79.83
2022-11-07T02:39:05.193Z,79.49
2022-11-07T02:41:35.644Z,79.75
2022-11-07T02:44:11.603Z,79.80
2022-11-07T02:46:41.103Z,79.73
2022-11-07T02:49:09.974Z,79.94
2022-11-07T02:51:38.523Z,79.69
2022-11-07T02:54:07.165Z,79.99
2022-11-07T02:56:35.776Z,80.03
2022-11-07T02:59:04.390Z,79.71
2022-11-07T03:01:33.075Z,79.35
2022-11-07T03:04:01.808Z,79.55
2022-11-07T03:06:30.557Z,79.64
2022-11-07T03:08:59.146Z,79.65
2022-11-07T03:11:27.708Z,79.72
2022-11-07T03:13:56.918Z,79.84
2022-11-07T03:16:25.531Z,79.87
2022-11-07T03:18:54.494Z,79.56
2022-11-07T03:21:23.099Z,79.86
2022-11-07T03:23:51.787Z,80.02
2022-11-07T03:26:57.748Z,80.06
2022-11-07T03:29:26.382Z,80.12
2022-11-07T03:31:54.909Z,80.31
2022-11-07T03:34:23.492Z,80.32
2022-11-07T03:36:52.116Z,80.34
2022-11-07T03:39:25.594Z,80.37
2022-11-07T03:41:54.661Z,80.33
2022-11-07T03:44:23.215Z,80.19
2022-11-07T03:46:51.765Z,80.39
2022-11-07T03:49:20.332Z,80.38
2022-11-07T03:51:49.077Z,80.37
2022-11-07T03:54:17.685Z,80.21
2022-11-07T03:56:46.285Z,80.65
2022-11-07T03:59:14.842Z,80.75
2022-11-07T04:01:44.700Z,80.88
2022-11-07T04:04:13.791Z,81.14
2022-11-07T04:06:42.274Z,80.82
2022-11-07T04:09:10.825Z,81.11
2022-11-07T04:12:28.971Z,81.49
2022-11-07T04:15:16.054Z,81.82
2022-11-07T04:17:44.711Z,81.41
2022-11-07T04:20:13.363Z,81.20
2022-11-07T04:22:42.007Z,81.51
2022-11-07T04:25:10.661Z,81.55
2022-11-07T04:27:47.018Z,81.52
2022-11-07T04:30:19.514Z,81.67
2022-11-07T04:32:51.897Z,81.44
2022-11-07T04:35:22.534Z,81.47
2022-11-07T04:37:51.256Z,81.33
2022-11-07T04:40:20.897Z,81.14
2022-11-07T04:42:50.284Z,81.21
2022-11-07T04:45:19.127Z,81.22
2022-11-07T04:47:48.179Z,81.22
2022-11-07T04:50:19.504Z,81.03
2022-11-07T04:52:48.405Z,81.13
2022-11-07T04:55:25.327Z,80.99
2022-11-07T04:57:53.987Z,80.75
2022-11-07T05:00:23.448Z,80.87
2022-11-07T05:02:52.623Z,80.86
2022-11-07T05:05:21.424Z,80.78
2022-11-07T05:07:50.089Z,81.04
2022-11-07T05:10:27.313Z,80.70
2022-11-07T05:12:56.777Z,80.68
2022-11-07T05:15:25.453Z,80.70
2022-11-07T05:17:53.996Z,80.37
2022-11-07T05:20:37.942Z,80.62
2022-11-07T05:23:13.928Z,80.63
2022-11-07T05:25:49.418Z,80.92
2022-11-07T05:28:33.684Z,81.03
2022-11-07T05:31:07.191Z,81.49
2022-11-07T05:33:36.307Z,81.81
2022-11-07T05:36:20.995Z,81.28
2022-11-07T05:38:52.812Z,80.81
2022-11-07T05:41:22.497Z,81.33
2022-11-07T05:43:51.153Z,81.25
2022-11-07T05:46:19.866Z,81.48
2022-11-07T05:48:48.442Z,81.50
2022-11-07T05:51:17.104Z,80.37
2022-11-07T05:53:45.711Z,80.06
2022-11-07T05:56:14.385Z,79.63
2022-11-07T05:58:42.961Z,79.60
2022-11-07T06:01:11.596Z,79.00
2022-11-07T06:03:40.144Z,78.93
2022-11-07T06:06:08.784Z,78.78
2022-11-07T06:08:37.405Z,78.68
2022-11-07T06:11:06.419Z,78.43
2022-11-07T06:13:35.076Z,78.37
2022-11-07T06:16:04.129Z,78.40
2022-11-07T06:18:35.537Z,78.10
2022-11-07T06:21:07.296Z,77.87
2022-11-07T06:23:35.942Z,77.98
2022-11-07T06:26:04.619Z,77.86
2022-11-07T06:28:33.154Z,77.43
2022-11-07T06:31:03.522Z,77.58
2022-11-07T06:33:32.571Z,77.94
2022-11-07T06:36:12.703Z,77.47
2022-11-07T06:38:41.339Z,77.50
2022-11-07T06:41:13.474Z,77.78
2022-11-07T06:43:42.441Z,77.67
2022-11-07T06:46:13.990Z,77.32
2022-11-07T06:48:42.579Z,77.51
2022-11-07T06:51:12.043Z,77.31
2022-11-07T06:53:40.843Z,77.08
2022-11-07T06:56:14.725Z,76.73
2022-11-07T06:58:43.321Z,76.47
2022-11-07T07:01:15.917Z,76.18
2022-11-07T07:03:44.654Z,75.71
2022-11-07T07:06:16.599Z,75.05
2022-11-07T07:08:46.381Z,74.72
2022-11-07T07:11:16.692Z,74.37
2022-11-07T07:13:45.345Z,74.50
2022-11-07T07:16:14.072Z,74.32
2022-11-07T07:18:42.593Z,74.37
2022-11-07T07:21:14.260Z,73.68
2022-11-07T07:23:42.998Z,73.58
2022-11-07T07:26:16.719Z,73.04
2022-11-07T07:28:45.278Z,72.38
2022-11-07T07:31:13.915Z,71.34
2022-11-07T07:33:43.619Z,70.72
2022-11-07T07:36:16.627Z,69.98
2022-11-07T07:38:49.321Z,69.37
2022-11-07T07:41:18.798Z,69.19
2022-11-07T07:43:47.401Z,69.58
2022-11-07T07:46:21.808Z,69.82
2022-11-07T07:48:50.500Z,70.02
2022-11-07T07:51:19.182Z,69.52
2022-11-07T07:53:47.919Z,69.33
2022-11-07T07:56:17.864Z,69.92
2022-11-07T07:58:47.184Z,69.93
2022-11-07T08:01:15.921Z,71.15
2022-11-07T08:04:00.804Z,71.31
2022-11-07T08:06:31.198Z,71.42
2022-11-07T08:08:59.845Z,70.81
2022-11-07T08:11:28.624Z,70.18
2022-11-07T08:14:01.197Z,69.24
2022-11-07T08:16:30.598Z,69.59
2022-11-07T08:18:59.354Z,69.46
2022-11-07T08:21:28.054Z,69.09
2022-11-07T08:23:56.880Z,69.02
2022-11-07T08:26:26.320Z,68.34
2022-11-07T08:28:55.280Z,67.98
2022-11-07T08:31:24.007Z,68.16
2022-11-07T08:33:52.708Z,68.18
2022-11-07T08:36:21.408Z,67.60
2022-11-07T08:38:50.135Z,67.63
2022-11-07T08:41:22.123Z,67.36
2022-11-07T08:43:51.079Z,67.29
2022-11-07T08:46:19.975Z,67.36
2022-11-07T08:48:48.610Z,67.11
2022-11-07T08:51:17.219Z,66.93
2022-11-07T08:53:45.871Z,66.92
2022-11-07T08:56:14.559Z,66.39
2022-11-07T08:58:43.388Z,65.87
2022-11-07T09:01:12.025Z,65.95
2022-11-07T09:03:54.794Z,66.23
2022-11-07T09:06:26.415Z,66.10
2022-11-07T09:08:55.092Z,65.93
2022-11-07T09:11:24.011Z,65.43
2022-11-07T09:13:54.220Z,65.12
2022-11-07T09:16:23.926Z,64.97
2022-11-07T09:18:52.831Z,64.97
2022-11-07T09:21:22.825Z,64.62
2022-11-07T09:23:52.637Z,64.50
2022-11-07T09:26:21.543Z,64.22
2022-11-07T09:28:53.196Z,64.13
2022-11-07T09:31:24.890Z,64.23
2022-11-07T09:33:53.643Z,64.37
2022-11-07T09:36:24.258Z,63.89
2022-11-07T09:38:56.267Z,63.73
2022-11-07T09:41:55.847Z,63.78
2022-11-07T09:44:58.844Z,63.72
2022-11-07T09:47:41.135Z,63.64
2022-11-07T09:50:23.408Z,63.74
2022-11-07T09:52:58.693Z,63.92
2022-11-07T09:55:48.578Z,63.53
2022-11-07T09:58:34.725Z,62.73
2022-11-07T10:01:14.834Z,62.52
2022-11-07T10:04:10.269Z,62.76
2022-11-07T10:06:40.677Z,62.40
2022-11-07T10:09:27.255Z,61.94
2022-11-07T10:12:16.866Z,61.67
2022-11-07T10:15:22.601Z,60.96
2022-11-07T10:18:12.723Z,60.71
2022-11-07T10:21:41.562Z,59.47
2022-11-07T10:24:51.154Z,60.08
2022-11-07T10:27:22.508Z,59.96
2022-11-07T10:29:54.763Z,58.82
2022-11-07T10:32:51.403Z,58.23
2022-11-07T10:35:37.664Z,58.74
2022-11-07T10:38:31.474Z,58.45
2022-11-07T10:41:00.031Z,57.79
2022-11-07T10:43:40.622Z,58.18
2022-11-07T10:46:41.973Z,57.22
2022-11-07T10:49:25.013Z,57.36
2022-11-07T10:51:54.760Z,57.18
2022-11-07T10:54:26.250Z,56.66
2022-11-07T10:57:23.042Z,55.91
2022-11-07T10:59:59.708Z,55.50
2022-11-07T11:02:56.480Z,54.70
2022-11-07T11:05:27.764Z,54.31
2022-11-07T11:08:07.514Z,53.53
2022-11-07T11:10:39.566Z,53.37
2022-11-07T11:13:26.272Z,52.71
2022-11-07T11:16:05.349Z,53.74
2022-11-07T11:18:34.529Z,53.51
2022-11-07T11:21:06.150Z,53.26
2022-11-07T11:23:42.207Z,52.40
2022-11-07T11:26:24.443Z,51.07
2022-11-07T11:29:05.861Z,50.55
2022-11-07T11:31:49.272Z,49.40
2022-11-07T11:34:24.969Z,49.06
2022-11-07T11:37:21.194Z,49.15
2022-11-07T11:40:00.255Z,49.25
2022-11-07T11:42:48.522Z,49.07
2022-11-07T11:45:31.179Z,48.65
2022-11-07T11:48:25.889Z,49.34
2022-11-07T11:51:18.556Z,49.30
2022-11-07T11:53:47.359Z,49.55
2022-11-07T11:56:21.837Z,49.47
2022-11-07T11:59:36.694Z,49.00
2022-11-07T12:02:39.260Z,48.00
2022-11-07T12:05:32.286Z,48.53
2022-11-07T12:09:00.521Z,48.14
2022-11-07T12:11:48.478Z,48.26
2022-11-07T12:14:54.348Z,48.86
2022-11-07T12:17:45.816Z,48.66
2022-11-07T12:20:25.020Z,47.88
2022-11-07T12:23:26.098Z,48.32
2022-11-07T12:26:05.075Z,48.47
2022-11-07T12:29:18.715Z,47.60
2022-11-07T12:32:37.916Z,47.63
2022-11-07T12:35:47.350Z,47.96
2022-11-07T12:39:04.317Z,47.73
2022-11-07T12:42:09.737Z,48.37
2022-11-07T12:44:53.462Z,47.25
2022-11-07T12:47:53.285Z,46.83
2022-11-07T12:50:35.578Z,46.90
2022-11-07T12:53:24.280Z,46.39
2022-11-07T12:56:08.272Z,47.25
2022-11-07T12:58:38.940Z,47.76
2022-11-07T13:01:08.364Z,48.57
2022-11-07T13:04:16.443Z,48.28
2022-11-07T13:07:24.015Z,47.74
2022-11-07T13:10:24.005Z,47.48
2022-11-07T13:13:04.991Z,48.18
2022-11-07T13:15:53.765Z,49.49
2022-11-07T13:18:28.003Z,50.19
2022-11-07T13:21:06.372Z,49.58
2022-11-07T13:23:35.015Z,49.02
2022-11-07T13:26:32.540Z,48.52
2022-11-07T13:29:00.209Z,48.84
2022-11-07T13:31:34.664Z,48.49
2022-11-07T13:34:25.568Z,47.54
2022-11-07T13:37:02.740Z,46.90
2022-11-07T13:39:31.725Z,47.72
2022-11-07T13:42:01.560Z,48.32
2022-11-07T13:44:37.725Z,48.44
2022-11-07T13:47:20.937Z,49.52
2022-11-07T13:49:49.858Z,49.03
2022-11-07T13:52:54.225Z,49.29
2022-11-07T13:55:29.532Z,48.97
2022-11-07T13:58:17.702Z,49.39
2022-11-07T14:00:46.374Z,51.25
2022-11-07T14:03:29.515Z,50.86
2022-11-07T14:05:58.037Z,50.39
2022-11-07T14:08:32.724Z,50.57
2022-11-07T14:11:01.813Z,51.34
2022-11-07T14:13:41.503Z,52.22
2022-11-07T14:16:26.454Z,52.78
2022-11-07T14:18:59.342Z,53.81
2022-11-07T14:21:32.755Z,54.75
2022-11-07T14:24:01.322Z,54.63
2022-11-07T14:26:33.133Z,55.65
2022-11-07T14:29:03.050Z,56.19
2022-11-07T14:31:36.525Z,56.53
2022-11-07T14:34:14.115Z,57.24
2022-11-07T14:36:58.558Z,57.63
2022-11-07T14:39:31.169Z,58.26
2022-11-07T14:42:03.203Z,58.62
2022-11-07T14:44:54.308Z,58.74
2022-11-07T14:47:32.032Z,59.63
2022-11-07T14:50:02.176Z,59.64
2022-11-07T14:52:48.022Z,59.90
2022-11-07T14:55:32.976Z,60.05
2022-11-07T14:58:06.440Z,60.33
2022-11-07T15:00:35.748Z,60.62
2022-11-07T15:03:04.894Z,60.68
2022-11-07T15:05:39.105Z,60.95
2022-11-07T15:08:28.197Z,60.90
2022-11-07T15:11:04.739Z,61.09
2022-11-07T15:13:34.818Z,61.25
2022-11-07T15:16:15.578Z,61.33
2022-11-07T15:18:48.988Z,61.57
2022-11-07T15:21:36.471Z,61.77
2022-11-07T15:24:44.590Z,62.09
2022-11-07T15:27:31.567Z,62.24
2022-11-07T15:30:03.327Z,62.65
2022-11-07T15:32:41.937Z,62.77
2022-11-07T15:35:42.903Z,63.44
2022-11-07T15:38:20.724Z,63.61
2022-11-07T15:40:50.114Z,63.44
2022-11-07T15:43:19.989Z,63.38
2022-11-07T15:45:50.601Z,64.02
2022-11-07T15:48:23.444Z,64.23
2022-11-07T15:50:52.205Z,64.25
2022-11-07T15:53:22.904Z,64.58
2022-11-07T15:55:58.037Z,64.72
2022-11-07T15:58:29.530Z,64.59
2022-11-07T16:00:58.887Z,64.25
2022-11-07T16:03:28.357Z,64.55
2022-11-07T16:06:01.851Z,64.59
2022-11-07T16:08:30.939Z,64.69
2022-11-07T16:11:01.976Z,64.82
2022-11-07T16:13:30.577Z,64.68
2022-11-07T16:16:02.356Z,64.65
2022-11-07T16:18:38.253Z,64.85
2022-11-07T16:21:07.237Z,64.40
2022-11-07T16:23:35.881Z,64.12
2022-11-07T16:26:04.672Z,64.61
2022-11-07T16:28:35.930Z,64.79
2022-11-07T16:31:05.092Z,64.75
2022-11-07T16:33:35.147Z,65.29
2022-11-07T16:36:15.988Z,65.08
2022-11-07T16:38:44.902Z,64.88
2022-11-07T16:41:14.209Z,65.08
2022-11-07T16:43:43.111Z,65.14
2022-11-07T16:46:19.501Z,64.87
2022-11-07T16:48:51.555Z,64.64
2022-11-07T16:51:22.861Z,64.75
2022-11-07T16:53:51.597Z,64.38
2022-11-07T16:56:41.344Z,64.30
2022-11-07T16:59:19.097Z,64.18
2022-11-07T17:01:48.704Z,63.94
2022-11-07T17:04:17.518Z,64.07
2022-11-07T17:06:47.818Z,63.83
2022-11-07T17:09:17.582Z,63.73
2022-11-07T17:11:46.920Z,63.76
2022-11-07T17:14:15.705Z,63.84
2022-11-07T17:16:48.694Z,64.31
2022-11-07T17:19:17.463Z,64.89
2022-11-07T17:21:49.695Z,64.52
2022-11-07T17:24:18.448Z,64.44
2022-11-07T17:26:47.328Z,64.49
2022-11-07T17:29:17.004Z,64.70
2022-11-07T17:31:46.272Z,64.75
2022-11-07T17:34:15.029Z,64.77
2022-11-07T17:36:47.927Z,64.94
2022-11-07T17:39:21.851Z,65.03
2022-11-07T17:41:51.635Z,65.13
2022-11-07T17:44:20.385Z,65.22
2022-11-07T17:46:50.559Z,65.91
2022-11-07T17:49:22.110Z,65.39
2022-11-07T17:51:54.336Z,65.88
2022-11-07T17:54:29.090Z,65.77
2022-11-07T17:56:58.302Z,65.95
2022-11-07T17:59:27.316Z,65.42
2022-11-07T18:01:56.540Z,65.25
2022-11-07T18:04:25.615Z,65.53
2022-11-07T18:06:54.404Z,65.64
2022-11-07T18:09:23.051Z,65.59
2022-11-07T18:11:52.005Z,65.29
2022-11-07T18:14:20.868Z,65.37
2022-11-07T18:16:49.666Z,65.67
2022-11-07T18:19:19.163Z,65.65
2022-11-07T18:21:47.846Z,65.73
2022-11-07T18:24:16.604Z,65.99
2022-11-07T18:26:45.637Z,66.29
2022-11-07T18:29:15.053Z,66.53
2022-11-07T18:31:43.938Z,66.80
2022-11-07T18:34:14.098Z,67.08
2022-11-07T18:36:44.952Z,67.03
2022-11-07T18:39:18.426Z,67.18
2022-11-07T18:41:48.263Z,67.35
2022-11-07T18:44:17.760Z,67.02
2022-11-07T18:46:47.642Z,67.24
2022-11-07T18:49:18.901Z,67.38
2022-11-07T18:51:47.570Z,67.36
2022-11-07T18:54:16.179Z,67.32
2022-11-07T18:56:45.068Z,67.47
2022-11-07T18:59:13.929Z,67.88
2022-11-07T19:01:42.763Z,68.17
2022-11-07T19:04:11.998Z,68.16
2022-11-07T19:06:55.900Z,68.03
2022-11-07T19:09:28.404Z,68.14
2022-11-07T19:11:59.211Z,68.25
2022-11-07T19:14:31.038Z,68.51
2022-11-07T19:16:59.689Z,68.45
2022-11-07T19:19:28.429Z,68.48
2022-11-07T19:21:57.264Z,68.98
2022-11-07T19:24:25.990Z,68.75
2022-11-07T19:26:55.185Z,68.94
2022-11-07T19:29:24.304Z,68.83
2022-11-07T19:31:53.137Z,69.03
2022-11-07T19:34:22.066Z,69.05
2022-11-07T19:36:52.400Z,69.30
2022-11-07T19:39:21.196Z,69.40
2022-11-07T19:41:49.943Z,69.13
2022-11-07T19:44:18.925Z,69.20
2022-11-07T19:46:48.147Z,69.10
2022-11-07T19:49:17.552Z,69.19
2022-11-07T19:51:46.190Z,68.95
2022-11-07T19:54:15.080Z,69.09
2022-11-07T19:56:43.796Z,69.20
2022-11-07T19:59:12.445Z,68.88
2022-11-07T20:01:41.153Z,69.45
2022-11-07T20:04:09.921Z,69.44
2022-11-07T20:06:39.172Z,69.20
2022-11-07T20:09:10.197Z,69.54
2022-11-07T20:11:39.946Z,69.62
2022-11-07T20:14:09.395Z,69.66
2022-11-07T20:16:38.389Z,69.37
2022-11-07T20:19:07.098Z,69.51
2022-11-07T20:21:37.410Z,69.83
2022-11-07T20:24:09.180Z,69.52
2022-11-07T20:26:38.858Z,69.68
2022-11-07T20:29:07.525Z,70.01
2022-11-07T20:31:40.147Z,70.62
2022-11-07T20:34:13.381Z,70.57
2022-11-07T20:36:41.994Z,70.25
2022-11-07T20:39:12.643Z,70.34
2022-11-07T20:41:42.787Z,71.11
2022-11-07T20:44:15.565Z,70.86
2022-11-07T20:46:45.960Z,70.97
2022-11-07T20:49:18.053Z,71.25
2022-11-07T20:51:46.929Z,71.43
2022-11-07T20:54:16.944Z,71.09
2022-11-07T20:56:45.628Z,71.30
2022-11-07T20:59:14.525Z,71.06
2022-11-07T21:01:44.146Z,71.90
2022-11-07T21:04:15.889Z,71.55
2022-11-07T21:06:46.305Z,71.46
2022-11-07T21:09:15.190Z,71.52
2022-11-07T21:11:44.244Z,72.02
2022-11-07T21:14:12.893Z,72.23
2022-11-07T21:16:41.455Z,72.53
2022-11-07T21:19:16.825Z,72.36
2022-11-07T21:21:49.663Z,72.43
2022-11-07T21:24:18.241Z,72.22
2022-11-07T21:26:47.158Z,72.26
2022-11-07T21:29:15.819Z,72.16
2022-11-07T21:31:44.801Z,72.09
2022-11-07T21:34:13.680Z,72.24
2022-11-07T21:36:42.851Z,72.44
2022-11-07T21:39:11.552Z,72.68
2022-11-07T21:41:40.116Z,72.57
2022-11-07T21:44:11.686Z,72.90
2022-11-07T21:46:40.345Z,73.16
2022-11-07T21:49:08.993Z,73.16
2022-11-07T21:51:37.578Z,73.32
2022-11-07T21:54:06.748Z,73.10
2022-11-07T21:56:39.056Z,73.10
2022-11-07T21:59:11.357Z,73.49
2022-11-07T22:01:41.180Z,73.56
2022-11-07T22:04:13.178Z,73.51
2022-11-07T22:06:45.453Z,73.28
2022-11-07T22:09:17.386Z,73.28
2022-11-07T22:11:46.176Z,73.34
2022-11-07T22:14:18.216Z,73.31
2022-11-07T22:16:47.560Z,73.23
2022-11-07T22:19:18.786Z,73.45
2022-11-07T22:21:49.309Z,73.50
2022-11-07T22:24:18.172Z,74.00
2022-11-07T22:26:46.990Z,73.89
2022-11-07T22:29:15.587Z,74.08
2022-11-07T22:31:44.162Z,74.46
2022-11-07T22:34:12.733Z,74.99
2022-11-07T22:36:41.306Z,75.20
2022-11-07T22:39:10.130Z,75.46
2022-11-07T22:41:38.879Z,75.33
2022-11-07T22:44:07.486Z,75.86
2022-11-07T22:46:36.211Z,75.87
2022-11-07T22:49:05.004Z,76.24
2022-11-07T22:51:35.452Z,76.37
2022-11-07T22:54:08.338Z,76.41
2022-11-07T23:10:15.430Z,75.52
2022-11-07T23:12:44.063Z,75.26
2022-11-07T23:15:13.522Z,75.48
2022-11-07T23:17:42.675Z,75.72
2022-11-07T23:20:31.775Z,76.10
2022-11-07T23:23:02.838Z,75.71
2022-11-07T23:25:31.636Z,75.65
2022-11-07T23:28:00.334Z,76.98
2022-11-07T23:30:30.586Z,77.37
2022-11-07T23:32:59.275Z,77.69
2022-11-07T23:35:27.932Z,77.84
2022-11-07T23:37:56.529Z,77.65
2022-11-07T23:40:25.199Z,76.18
2022-11-07T23:42:53.759Z,77.43
2022-11-07T23:45:40.875Z,79.51
2022-11-07T23:48:33.363Z,79.35
2022-11-07T23:51:05.218Z,79.39
2022-11-07T23:53:53.792Z,79.40
2022-11-07T23:56:26.033Z,80.31
2022-11-07T23:59:14.137Z,81.09
